Terminal Aerodrome Forecast
Issued by NWS Billings, MT

Home | Current Version | Previous Version | Text Only | Print | Product List | Glossary On
Versions: 1 2 3 4 5 6 7 8 9 10 11 12 13 14 15 16 17 18 19 20 21 22 23 24 25 26
000
FTUS45 KBYZ 040526
TAFSHR
TAF
KSHR 040526Z 0406/0506 14009KT P6SM VCSH SCT050 BKN100
     FM042200 12012KT P6SM VCTS SCT050CB
     FM050200 12005KT P6SM SCT050=

USA.gov is the U.S. government's official web portal to all federal, state and local government web resources and services.